Time;durP1;ratioP1;P1;durP2;ratioP2;P2;SDS_P1;SDS_P2;PMS_P1;PMS_P2;Temp;Humidity;BMP_temperature;BMP_pressure;BME280_temperature;BME280_humidity;BME280_pressure;Samples;Min_cycle;Max_cycle;Signal;HPM_P1;HPM_P2
2022/06/30 00:04:19;;;;;;;6.20;4.00;;;;;;;;;;10275605;28;20041;-65
2022/06/30 00:09:19;;;;;;;5.40;3.95;;;;;;;;;;10275335;28;20511;-66
2022/06/30 00:14:17;;;;;;;5.32;4.47;;;;;;;;;;10288365;28;20522;-65
2022/06/30 00:19:16;;;;;;;8.55;4.30;;;;;;;;;;10278706;28;20076;-65
2022/06/30 00:24:16;;;;;;;7.88;4.75;;;;;;;;;;10276206;28;20092;-65
2022/06/30 00:29:17;;;;;;;5.75;4.90;;;;;;;;;;10282347;28;20529;-65
2022/06/30 00:34:16;;;;;;;9.10;4.25;;;;;;;;;;10280264;28;20088;-65
2022/06/30 00:39:16;;;;;;;9.02;5.28;;;;;;;;;;10281915;28;20455;-64
2022/06/30 00:44:14;;;;;;;6.05;5.05;;;;;;;;;;10280947;28;20418;-64
2022/06/30 00:49:14;;;;;;;4.78;4.32;;;;;;;;;;10282741;28;20168;-65
2022/06/30 00:54:13;;;;;;;10.07;5.28;;;;;;;;;;10282137;28;20049;-65
2022/06/30 00:59:13;;;;;;;9.20;4.72;;;;;;;;;;10281626;28;20052;-65
2022/06/30 01:04:13;;;;;;;5.10;4.60;;;;;;;;;;10281389;28;20045;-65
2022/06/30 01:09:11;;;;;;;5.22;4.45;;;;;;;;;;10281056;28;20099;-65
2022/06/30 01:14:10;;;;;;;8.05;4.80;;;;;;;;;;10281903;28;20068;-66
2022/06/30 01:19:09;;;;;;;5.00;4.50;;;;;;;;;;10280901;28;20099;-65
2022/06/30 01:24:09;;;;;;;5.45;4.93;;;;;;;;;;10283633;28;20088;-65
2022/06/30 01:29:07;;;;;;;7.05;4.95;;;;;;;;;;10283901;28;20068;-65
2022/06/30 01:34:06;;;;;;;13.10;5.80;;;;;;;;;;10284233;28;20077;-65
2022/06/30 01:39:04;;;;;;;7.90;4.68;;;;;;;;;;10281336;28;20064;-65
2022/06/30 01:44:04;;;;;;;10.40;5.57;;;;;;;;;;10281014;28;20085;-65
2022/06/30 01:49:02;;;;;;;12.13;10.93;;;;;;;;;;10280706;28;20079;-70
2022/06/30 01:54:00;;;;;;;9.20;7.20;;;;;;;;;;10283431;28;20506;-69
2022/06/30 01:58:58;;;;;;;8.82;5.53;;;;;;;;;;10280475;28;20068;-69
2022/06/30 02:04:46;;;;;;;6.47;5.78;;;;;;;;;;10279043;28;20084;-68
2022/06/30 02:09:17;;;;;;;9.73;6.30;;;;;;;;;;10282286;28;20083;-68
2022/06/30 02:14:16;;;;;;;5.65;5.07;;;;;;;;;;10282419;28;20087;-69
2022/06/30 02:19:18;;;;;;;6.10;5.05;;;;;;;;;;10279318;28;20072;-67
2022/06/30 02:24:16;;;;;;;7.03;5.80;;;;;;;;;;10276602;28;20502;-69
2022/06/30 02:29:15;;;;;;;7.85;4.90;;;;;;;;;;10278986;28;20103;-68
2022/06/30 02:34:14;;;;;;;5.93;4.65;;;;;;;;;;10276887;28;20052;-68
2022/06/30 02:39:13;;;;;;;4.80;4.38;;;;;;;;;;10278890;28;20064;-68
2022/06/30 02:44:11;;;;;;;5.35;4.85;;;;;;;;;;10278537;28;20519;-68
2022/06/30 02:49:10;;;;;;;7.38;4.95;;;;;;;;;;10281400;28;20068;-69
2022/06/30 02:54:08;;;;;;;5.53;4.30;;;;;;;;;;10279495;28;20048;-69
2022/06/30 02:59:08;;;;;;;12.88;4.97;;;;;;;;;;10277627;28;20079;-69
2022/06/30 03:04:06;;;;;;;11.65;4.90;;;;;;;;;;10280425;28;20076;-69
2022/06/30 03:09:05;;;;;;;8.52;4.72;;;;;;;;;;10277777;28;20088;-68
2022/06/30 03:14:03;;;;;;;7.20;4.05;;;;;;;;;;10277476;28;20441;-68
2022/06/30 03:19:03;;;;;;;10.02;4.68;;;;;;;;;;10280409;28;20516;-68
2022/06/30 03:24:01;;;;;;;5.90;4.47;;;;;;;;;;10279658;28;20080;-69
2022/06/30 03:29:00;;;;;;;5.82;4.47;;;;;;;;;;10280108;28;20083;-68
2022/06/30 03:33:58;;;;;;;5.03;4.45;;;;;;;;;;10279605;28;20049;-69
2022/06/30 03:38:58;;;;;;;4.93;4.53;;;;;;;;;;10277537;28;20498;-68
2022/06/30 03:43:56;;;;;;;8.20;4.60;;;;;;;;;;10277487;28;20076;-68
2022/06/30 03:48:55;;;;;;;4.88;4.38;;;;;;;;;;10277042;28;20077;-68
2022/06/30 03:53:56;;;;;;;7.47;4.60;;;;;;;;;;10280106;28;20084;-69
2022/06/30 03:58:56;;;;;;;15.90;5.57;;;;;;;;;;10277062;28;20482;-68
2022/06/30 04:03:54;;;;;;;9.77;5.00;;;;;;;;;;10279824;28;20490;-67
2022/06/30 04:08:52;;;;;;;20.60;8.35;;;;;;;;;;10275903;28;20088;-69
2022/06/30 04:13:51;;;;;;;30.60;13.10;;;;;;;;;;10289575;28;20068;-70
2022/06/30 04:18:50;;;;;;;25.83;10.80;;;;;;;;;;10286076;28;20072;-68
2022/06/30 04:23:49;;;;;;;16.67;8.80;;;;;;;;;;10293845;28;20088;-69
2022/06/30 04:28:47;;;;;;;39.08;31.27;;;;;;;;;;10283751;28;20522;-69
2022/06/30 04:33:45;;;;;;;6.13;5.30;;;;;;;;;;10284907;28;20106;-70
2022/06/30 04:38:45;;;;;;;12.43;8.00;;;;;;;;;;10283944;28;20053;-69
2022/06/30 04:43:44;;;;;;;10.98;4.95;;;;;;;;;;10279108;28;20571;-69
2022/06/30 04:48:42;;;;;;;9.43;4.88;;;;;;;;;;10278763;28;20096;-69
2022/06/30 04:53:46;;;;;;;7.60;4.78;;;;;;;;;;10278680;28;20083;-69
2022/06/30 04:58:46;;;;;;;8.20;5.55;;;;;;;;;;10283347;28;20041;-71
2022/06/30 05:03:45;;;;;;;7.95;5.63;;;;;;;;;;10289769;28;20083;-69
2022/06/30 05:08:43;;;;;;;10.57;5.88;;;;;;;;;;10281895;28;20084;-68
2022/06/30 05:13:41;;;;;;;8.20;5.60;;;;;;;;;;10280998;28;20513;-69
2022/06/30 05:18:41;;;;;;;5.53;5.03;;;;;;;;;;10301482;28;20056;-69
2022/06/30 05:26:28;;;;;;;12.43;5.03;;;;;;;;;;10298578;28;20081;-69
2022/06/30 05:29:05;;;;;;;6.75;5.00;;;;;;;;;;10287583;28;20516;-71
2022/06/30 05:34:07;;;;;;;7.97;4.53;;;;;;;;;;10279080;28;20072;-69
2022/06/30 05:39:06;;;;;;;8.68;5.15;;;;;;;;;;10314562;28;20059;-67
2022/06/30 05:44:04;;;;;;;8.10;5.10;;;;;;;;;;10297545;28;20474;-69
2022/06/30 05:49:02;;;;;;;8.07;5.10;;;;;;;;;;10279830;28;20084;-69
2022/06/30 05:54:02;;;;;;;11.38;5.25;;;;;;;;;;10283304;28;20041;-68
2022/06/30 05:59:00;;;;;;;10.48;6.32;;;;;;;;;;10280090;28;20455;-69
2022/06/30 06:03:59;;;;;;;15.35;5.85;;;;;;;;;;10280468;28;20069;-70
2022/06/30 06:08:57;;;;;;;10.70;5.68;;;;;;;;;;10284609;28;20099;-67
2022/06/30 06:13:57;;;;;;;18.92;7.90;;;;;;;;;;10282378;28;20049;-69
2022/06/30 06:18:55;;;;;;;9.45;5.80;;;;;;;;;;10278348;28;20277;-69
2022/06/30 06:23:54;;;;;;;12.60;6.95;;;;;;;;;;10277401;28;20087;-68
2022/06/30 06:29:07;;;;;;;15.75;5.22;;;;;;;;;;10290400;28;20072;-68
2022/06/30 06:34:07;;;;;;;12.80;5.72;;;;;;;;;;10279934;28;20060;-68
2022/06/30 06:39:06;;;;;;;8.55;4.88;;;;;;;;;;10287226;28;20087;-68
2022/06/30 06:44:04;;;;;;;10.25;5.13;;;;;;;;;;10277068;28;20069;-68
2022/06/30 06:49:04;;;;;;;12.20;6.35;;;;;;;;;;10276890;28;20426;-68
2022/06/30 06:54:04;;;;;;;12.57;5.65;;;;;;;;;;10277667;28;20064;-68
2022/06/30 06:59:02;;;;;;;6.22;5.07;;;;;;;;;;10276419;28;20076;-69
2022/06/30 07:04:01;;;;;;;16.50;7.40;;;;;;;;;;10274365;28;20073;-68
2022/06/30 07:08:59;;;;;;;12.73;7.03;;;;;;;;;;10280156;28;20091;-68
2022/06/30 07:13:59;;;;;;;16.15;8.93;;;;;;;;;;10279898;28;20075;-68
2022/06/30 07:18:57;;;;;;;12.23;6.03;;;;;;;;;;10280655;28;20085;-69
2022/06/30 07:23:56;;;;;;;25.38;5.90;;;;;;;;;;10279477;28;20095;-68
2022/06/30 07:28:54;;;;;;;9.60;6.30;;;;;;;;;;10278854;28;20482;-69
2022/06/30 07:33:54;;;;;;;17.95;7.10;;;;;;;;;;10277453;28;20410;-68
2022/06/30 07:38:52;;;;;;;7.72;5.93;;;;;;;;;;10277208;28;20072;-68
2022/06/30 07:43:51;;;;;;;15.15;6.45;;;;;;;;;;10277334;28;20045;-68
2022/06/30 07:48:49;;;;;;;8.55;6.95;;;;;;;;;;10282250;28;20095;-68
2022/06/30 07:53:49;;;;;;;7.55;6.72;;;;;;;;;;10283780;28;20083;-68
2022/06/30 07:58:48;;;;;;;11.73;6.45;;;;;;;;;;10286975;28;20091;-68
2022/06/30 08:03:46;;;;;;;7.70;5.22;;;;;;;;;;10283257;28;20079;-68
2022/06/30 08:08:45;;;;;;;8.40;5.78;;;;;;;;;;10283527;28;20080;-68
2022/06/30 08:13:44;;;;;;;9.82;5.80;;;;;;;;;;10282969;28;20044;-68
2022/06/30 08:18:43;;;;;;;27.45;16.40;;;;;;;;;;10282923;28;20091;-68
2022/06/30 08:23:41;;;;;;;12.10;7.07;;;;;;;;;;10289366;28;20084;-69
2022/06/30 08:28:40;;;;;;;11.20;5.70;;;;;;;;;;10286090;28;20077;-69
2022/06/30 08:33:47;;;;;;;7.55;5.13;;;;;;;;;;10282518;28;20079;-68
2022/06/30 08:38:46;;;;;;;8.35;4.72;;;;;;;;;;10282191;28;20065;-68
2022/06/30 08:43:44;;;;;;;8.88;4.85;;;;;;;;;;10281952;28;20068;-68
2022/06/30 08:48:42;;;;;;;6.45;5.20;;;;;;;;;;10281818;28;20503;-68
2022/06/30 08:53:45;;;;;;;8.63;4.40;;;;;;;;;;10284617;28;20080;-68
2022/06/30 08:58:44;;;;;;;10.50;4.80;;;;;;;;;;10281795;28;20048;-68
2022/06/30 09:03:44;;;;;;;7.05;3.60;;;;;;;;;;10285561;28;20632;-68
2022/06/30 09:08:43;;;;;;;4.43;3.35;;;;;;;;;;10281293;28;20516;-68
2022/06/30 09:13:43;;;;;;;8.50;4.10;;;;;;;;;;10280916;28;20079;-69
2022/06/30 09:18:42;;;;;;;4.85;3.03;;;;;;;;;;10300271;28;20056;-68
2022/06/30 09:23:43;;;;;;;5.22;3.75;;;;;;;;;;10301107;28;20521;-68
2022/06/30 09:28:44;;;;;;;7.32;3.67;;;;;;;;;;10280384;28;20072;-68
2022/06/30 09:34:20;;;;;;;5.53;4.20;;;;;;;;;;10281845;28;20061;-68
2022/06/30 09:39:19;;;;;;;4.82;3.45;;;;;;;;;;10287165;28;20073;-68
2022/06/30 09:44:21;;;;;;;5.75;4.32;;;;;;;;;;10279586;28;20073;-68
2022/06/30 09:49:28;;;;;;;7.88;2.92;;;;;;;;;;10282701;28;20080;-68
2022/06/30 09:54:27;;;;;;;6.18;3.47;;;;;;;;;;10282680;28;20037;-69
2022/06/30 09:59:26;;;;;;;5.53;2.70;;;;;;;;;;10280419;28;20501;-68
2022/06/30 10:04:25;;;;;;;7.80;2.83;;;;;;;;;;10286690;28;20506;-68
2022/06/30 10:09:23;;;;;;;7.30;3.03;;;;;;;;;;10282189;28;20540;-69
2022/06/30 10:14:22;;;;;;;8.25;2.75;;;;;;;;;;10281766;28;20045;-69
2022/06/30 10:19:21;;;;;;;7.13;2.80;;;;;;;;;;10281952;28;20099;-68
2022/06/30 10:24:21;;;;;;;4.75;2.60;;;;;;;;;;10281657;28;20057;-68
2022/06/30 10:29:20;;;;;;;9.07;3.08;;;;;;;;;;10282149;28;20194;-68
2022/06/30 10:34:24;;;;;;;5.00;3.50;;;;;;;;;;10280395;28;20072;-68
2022/06/30 10:39:26;;;;;;;4.75;3.50;;;;;;;;;;10279080;28;20052;-68
2022/06/30 10:44:25;;;;;;;6.97;3.15;;;;;;;;;;10279250;28;20037;-69
2022/06/30 10:49:26;;;;;;;6.00;4.20;;;;;;;;;;10281631;28;20091;-68
2022/06/30 10:54:28;;;;;;;5.10;2.50;;;;;;;;;;10279954;28;20049;-68
2022/06/30 10:59:28;;;;;;;7.50;3.20;;;;;;;;;;10276362;28;20494;-69
2022/06/30 11:04:27;;;;;;;9.35;3.22;;;;;;;;;;10277955;28;20080;-69
2022/06/30 11:09:44;;;;;;;4.53;3.08;;;;;;;;;;10277104;28;20077;-68
2022/06/30 11:14:46;;;;;;;4.70;2.83;;;;;;;;;;10277331;28;20056;-69
2022/06/30 11:19:47;;;;;;;5.53;2.90;;;;;;;;;;10276224;28;20421;-68
2022/06/30 11:24:45;;;;;;;9.25;3.78;;;;;;;;;;10276388;28;20061;-68
2022/06/30 11:29:45;;;;;;;6.35;1.88;;;;;;;;;;10276388;28;20080;-68
2022/06/30 11:34:50;;;;;;;5.82;2.67;;;;;;;;;;10276394;28;20502;-68
2022/06/30 11:39:48;;;;;;;5.72;2.33;;;;;;;;;;10279285;28;20072;-68
2022/06/30 11:44:46;;;;;;;4.28;2.50;;;;;;;;;;10279365;28;20041;-68
2022/06/30 11:49:46;;;;;;;13.73;4.20;;;;;;;;;;10276509;28;20073;-68
2022/06/30 11:54:48;;;;;;;5.63;2.50;;;;;;;;;;10275824;28;20072;-69
2022/06/30 11:59:47;;;;;;;4.30;2.60;;;;;;;;;;10279352;28;20473;-69
2022/06/30 12:04:50;;;;;;;6.72;2.55;;;;;;;;;;10274670;28;20072;-68
2022/06/30 12:09:51;;;;;;;4.15;2.03;;;;;;;;;;10275671;28;20088;-69
2022/06/30 12:14:53;;;;;;;5.22;2.50;;;;;;;;;;10275786;28;20053;-68
2022/06/30 12:19:52;;;;;;;6.15;2.05;;;;;;;;;;10274475;28;20096;-68
2022/06/30 12:24:51;;;;;;;6.68;1.90;;;;;;;;;;10274688;28;20378;-69
2022/06/30 12:29:55;;;;;;;2.63;1.85;;;;;;;;;;10274398;28;20084;-68
2022/06/30 12:34:54;;;;;;;6.57;2.13;;;;;;;;;;10286731;28;20557;-68
2022/06/30 12:39:55;;;;;;;4.80;1.88;;;;;;;;;;10284727;28;20104;-68
2022/06/30 12:44:53;;;;;;;4.38;2.00;;;;;;;;;;10285062;28;20081;-68
2022/06/30 12:49:51;;;;;;;3.13;1.80;;;;;;;;;;10282049;28;20077;-69
2022/06/30 12:54:51;;;;;;;7.55;3.53;;;;;;;;;;10282922;28;20057;-68
2022/06/30 12:59:51;;;;;;;6.47;2.15;;;;;;;;;;10292811;28;20056;-69
2022/06/30 13:04:50;;;;;;;6.43;1.92;;;;;;;;;;10279357;28;20052;-69
2022/06/30 13:09:49;;;;;;;3.60;1.90;;;;;;;;;;10280122;28;20490;-67
2022/06/30 13:14:48;;;;;;;5.20;2.42;;;;;;;;;;10279599;28;20045;-69
2022/06/30 13:19:48;;;;;;;5.75;2.00;;;;;;;;;;10285716;28;20537;-68
2022/06/30 13:24:46;;;;;;;3.70;2.38;;;;;;;;;;10287672;28;20481;-69
2022/06/30 13:29:45;;;;;;;5.47;2.55;;;;;;;;;;10279499;28;20084;-69
2022/06/30 13:34:43;;;;;;;4.97;2.05;;;;;;;;;;10279482;28;20045;-70
2022/06/30 13:39:43;;;;;;;5.97;2.63;;;;;;;;;;10279121;28;20080;-70
2022/06/30 13:44:41;;;;;;;2.47;2.25;;;;;;;;;;10286660;28;20072;-68
2022/06/30 13:49:40;;;;;;;11.80;4.45;;;;;;;;;;10279976;28;20068;-68
2022/06/30 13:54:39;;;;;;;11.60;3.50;;;;;;;;;;10282124;28;20060;-69
2022/06/30 13:59:39;;;;;;;6.50;3.60;;;;;;;;;;10280062;28;20568;-69
2022/06/30 14:04:37;;;;;;;8.02;5.15;;;;;;;;;;10286682;28;20537;-69
2022/06/30 14:09:35;;;;;;;9.10;4.05;;;;;;;;;;10279779;28;20052;-70
2022/06/30 14:14:34;;;;;;;3.80;2.60;;;;;;;;;;10281690;28;20521;-69
2022/06/30 14:19:33;;;;;;;7.82;2.60;;;;;;;;;;10282591;28;20041;-68
2022/06/30 14:24:32;;;;;;;8.73;2.70;;;;;;;;;;10281459;28;20077;-69
2022/06/30 14:29:30;;;;;;;4.00;2.35;;;;;;;;;;10279169;28;20084;-69
2022/06/30 14:34:28;;;;;;;3.75;2.28;;;;;;;;;;10278896;28;20524;-69
2022/06/30 14:39:28;;;;;;;3.17;2.33;;;;;;;;;;10282277;28;20070;-69
2022/06/30 14:44:26;;;;;;;3.63;2.53;;;;;;;;;;10276945;28;20429;-70
2022/06/30 14:49:25;;;;;;;12.27;6.47;;;;;;;;;;10277745;28;20072;-70
2022/06/30 14:54:30;;;;;;;7.95;2.80;;;;;;;;;;10277524;28;20080;-68
2022/06/30 14:59:29;;;;;;;4.75;3.42;;;;;;;;;;10277694;28;20055;-68
2022/06/30 15:04:28;;;;;;;5.18;3.00;;;;;;;;;;10277716;28;20517;-68
2022/06/30 15:09:27;;;;;;;8.85;4.60;;;;;;;;;;10281268;28;20072;-69
2022/06/30 15:14:27;;;;;;;8.70;3.00;;;;;;;;;;10278707;28;20076;-69
2022/06/30 15:19:26;;;;;;;7.65;2.60;;;;;;;;;;10277451;28;20104;-69
2022/06/30 15:24:25;;;;;;;5.97;3.13;;;;;;;;;;10277399;28;20084;-68
2022/06/30 15:29:32;;;;;;;5.82;2.85;;;;;;;;;;10277265;28;20072;-68
2022/06/30 15:34:32;;;;;;;6.20;3.45;;;;;;;;;;10278458;28;20631;-69
2022/06/30 15:39:52;;;;;;;7.05;2.88;;;;;;;;;;10276465;28;20076;-68
2022/06/30 15:44:52;;;;;;;5.05;4.13;;;;;;;;;;10279443;28;20077;-69
2022/06/30 15:49:51;;;;;;;10.02;3.08;;;;;;;;;;10274926;28;20065;-68
2022/06/30 15:54:49;;;;;;;8.05;3.80;;;;;;;;;;10276293;28;20076;-69
2022/06/30 15:59:47;;;;;;;6.45;3.13;;;;;;;;;;10275043;28;20052;-68
2022/06/30 16:04:47;;;;;;;5.35;3.45;;;;;;;;;;10275957;28;20049;-69
2022/06/30 16:09:46;;;;;;;4.80;3.47;;;;;;;;;;10282591;28;20041;-70
2022/06/30 16:14:44;;;;;;;8.73;2.80;;;;;;;;;;10286192;28;20527;-69
2022/06/30 16:19:42;;;;;;;7.35;4.05;;;;;;;;;;10283973;28;20080;-68
2022/06/30 16:24:42;;;;;;;7.78;3.40;;;;;;;;;;10286735;28;20072;-69
2022/06/30 16:29:42;;;;;;;7.10;3.17;;;;;;;;;;10286044;28;20064;-68
2022/06/30 16:34:41;;;;;;;7.50;3.15;;;;;;;;;;10283127;28;20556;-70
2022/06/30 16:39:39;;;;;;;4.28;2.75;;;;;;;;;;10285535;28;20053;-66
2022/06/30 16:44:40;;;;;;;10.98;3.08;;;;;;;;;;10281827;28;20099;-66
2022/06/30 16:49:59;;;;;;;9.77;3.53;;;;;;;;;;10281639;28;20505;-66
2022/06/30 16:54:57;;;;;;;9.18;3.70;;;;;;;;;;10280273;28;20074;-66
2022/06/30 16:59:58;;;;;;;9.50;3.83;;;;;;;;;;10278353;28;20073;-65
2022/06/30 17:04:56;;;;;;;7.65;3.33;;;;;;;;;;10289426;28;20056;-65
2022/06/30 17:09:55;;;;;;;11.30;5.55;;;;;;;;;;10281746;28;20088;-65
2022/06/30 17:14:54;;;;;;;14.20;3.20;;;;;;;;;;10281266;28;20166;-66
2022/06/30 17:19:54;;;;;;;9.63;3.33;;;;;;;;;;10283062;28;20080;-65
2022/06/30 17:24:52;;;;;;;8.55;3.60;;;;;;;;;;10287583;28;20088;-65
2022/06/30 17:29:50;;;;;;;11.95;3.10;;;;;;;;;;10282304;28;20080;-65
2022/06/30 17:34:49;;;;;;;13.02;3.30;;;;;;;;;;10283233;28;20072;-66
2022/06/30 17:39:48;;;;;;;10.80;3.33;;;;;;;;;;10314791;28;20448;-66
2022/06/30 17:44:47;;;;;;;10.45;2.70;;;;;;;;;;10290546;28;20510;-64
2022/06/30 17:49:45;;;;;;;8.70;3.35;;;;;;;;;;10283247;28;20313;-65
2022/06/30 17:54:46;;;;;;;6.43;3.10;;;;;;;;;;10280939;28;20498;-66
2022/06/30 17:59:46;;;;;;;11.38;3.28;;;;;;;;;;10278294;28;20041;-65
2022/06/30 18:04:45;;;;;;;9.40;2.95;;;;;;;;;;10286396;28;20077;-65
2022/06/30 18:15:00;;;;;;;9.02;3.22;;;;;;;;;;10277211;28;20080;-66
2022/06/30 18:19:58;;;;;;;9.90;3.63;;;;;;;;;;10277036;28;20068;-66
2022/06/30 18:24:57;;;;;;;8.02;2.70;;;;;;;;;;10280124;28;20132;-66
2022/06/30 18:29:55;;;;;;;6.13;2.60;;;;;;;;;;10282038;28;20073;-66
2022/06/30 18:34:55;;;;;;;6.90;2.65;;;;;;;;;;10286351;28;20064;-66
2022/06/30 18:39:53;;;;;;;8.25;2.85;;;;;;;;;;10275901;28;20134;-65
2022/06/30 18:44:51;;;;;;;10.45;3.35;;;;;;;;;;10280446;28;20066;-65
2022/06/30 18:49:50;;;;;;;16.13;3.72;;;;;;;;;;10274508;28;20466;-66
2022/06/30 18:54:49;;;;;;;18.88;4.15;;;;;;;;;;10285515;28;20079;-65
2022/06/30 18:59:48;;;;;;;9.40;3.20;;;;;;;;;;10282915;28;20060;-65
2022/06/30 19:04:47;;;;;;;4.53;3.00;;;;;;;;;;10278229;28;20068;-64
2022/06/30 19:09:47;;;;;;;13.48;4.32;;;;;;;;;;10278774;28;20064;-65
2022/06/30 19:14:47;;;;;;;9.52;2.72;;;;;;;;;;10280517;28;20102;-65
2022/06/30 19:19:46;;;;;;;4.95;2.28;;;;;;;;;;10283808;28;20069;-64
2022/06/30 19:24:44;;;;;;;7.50;3.08;;;;;;;;;;10280728;28;20076;-64
2022/06/30 19:29:43;;;;;;;8.55;2.50;;;;;;;;;;10281258;28;20060;-65
2022/06/30 19:34:42;;;;;;;7.70;2.78;;;;;;;;;;10278383;28;20084;-65
2022/06/30 19:39:41;;;;;;;5.50;2.50;;;;;;;;;;10281333;28;20093;-65
2022/06/30 19:44:39;;;;;;;5.32;3.00;;;;;;;;;;10287157;28;20041;-64
2022/06/30 19:49:37;;;;;;;8.68;4.10;;;;;;;;;;10292239;28;20095;-66
2022/06/30 19:54:37;;;;;;;10.77;3.63;;;;;;;;;;10287199;28;20089;-66
2022/06/30 19:59:39;;;;;;;10.35;4.10;;;;;;;;;;10282243;28;20071;-64
2022/06/30 20:15:11;;;;;;;9.77;3.25;;;;;;;;;;10284712;28;20072;-64
2022/06/30 20:20:10;;;;;;;9.40;4.60;;;;;;;;;;10286893;28;20044;-65
2022/06/30 20:25:10;;;;;;;17.35;3.70;;;;;;;;;;10302749;28;20071;-66
2022/06/30 20:30:09;;;;;;;13.77;3.40;;;;;;;;;;10292178;28;20075;-65
2022/06/30 20:35:08;;;;;;;14.90;3.65;;;;;;;;;;10283680;28;20163;-65
2022/06/30 20:40:07;;;;;;;15.52;3.70;;;;;;;;;;10278598;28;20053;-65
2022/06/30 20:45:08;;;;;;;13.05;3.65;;;;;;;;;;10281625;28;20473;-65
2022/06/30 20:55:25;;;;;;;13.00;4.95;;;;;;;;;;10278888;28;20087;-65
2022/06/30 21:00:25;;;;;;;15.02;6.50;;;;;;;;;;10279733;28;20477;-64
2022/06/30 21:05:24;;;;;;;8.45;4.57;;;;;;;;;;10287955;28;20096;-65
2022/06/30 21:10:22;;;;;;;9.23;3.13;;;;;;;;;;10281791;28;20053;-65
2022/06/30 21:15:21;;;;;;;6.47;3.25;;;;;;;;;;10281258;28;20072;-65
2022/06/30 21:20:21;;;;;;;6.28;3.80;;;;;;;;;;10280892;28;20470;-65
2022/06/30 21:25:19;;;;;;;4.40;2.50;;;;;;;;;;10281688;28;20576;-65
2022/06/30 21:30:17;;;;;;;7.03;2.63;;;;;;;;;;10278620;28;20064;-65
2022/06/30 21:35:16;;;;;;;5.55;2.70;;;;;;;;;;10279882;28;20080;-64
2022/06/30 21:40:16;;;;;;;2.60;2.40;;;;;;;;;;10279093;28;20171;-65
2022/06/30 21:45:15;;;;;;;4.65;2.90;;;;;;;;;;10278928;28;20072;-65
2022/06/30 21:50:13;;;;;;;5.00;2.50;;;;;;;;;;10278826;28;20041;-65
2022/06/30 21:55:11;;;;;;;5.03;3.05;;;;;;;;;;10280165;28;20084;-65
2022/06/30 22:00:13;;;;;;;6.90;2.55;;;;;;;;;;10280243;28;20081;-65
2022/06/30 22:05:11;;;;;;;3.75;2.97;;;;;;;;;;10279490;28;20479;-65
2022/06/30 22:10:10;;;;;;;4.15;2.50;;;;;;;;;;10282403;28;20072;-64
2022/06/30 22:15:09;;;;;;;11.23;2.95;;;;;;;;;;10278298;28;20502;-65
2022/06/30 22:20:09;;;;;;;8.63;3.83;;;;;;;;;;10277861;28;20076;-64
2022/06/30 22:25:08;;;;;;;9.70;4.95;;;;;;;;;;10278139;28;20053;-65
2022/06/30 22:30:07;;;;;;;11.27;9.00;;;;;;;;;;10281468;28;20053;-65
2022/06/30 22:35:06;;;;;;;7.05;5.15;;;;;;;;;;10286413;28;20168;-64
2022/06/30 22:40:07;;;;;;;9.55;5.03;;;;;;;;;;10279857;28;20081;-65
2022/06/30 22:45:06;;;;;;;5.32;2.28;;;;;;;;;;10280321;28;20522;-64
2022/06/30 22:50:04;;;;;;;3.40;2.65;;;;;;;;;;10278003;28;20081;-65
2022/06/30 22:55:03;;;;;;;3.10;1.95;;;;;;;;;;10276629;28;20095;-64
2022/06/30 23:00:03;;;;;;;2.65;2.28;;;;;;;;;;10276174;28;20080;-65
2022/06/30 23:05:01;;;;;;;4.53;2.38;;;;;;;;;;10276163;28;20065;-65
2022/06/30 23:10:00;;;;;;;3.60;2.33;;;;;;;;;;10275505;28;20073;-65
2022/06/30 23:14:58;;;;;;;5.80;2.47;;;;;;;;;;10276559;28;20076;-65
2022/06/30 23:19:58;;;;;;;4.20;2.58;;;;;;;;;;10279485;28;20084;-65
2022/06/30 23:24:56;;;;;;;6.43;3.55;;;;;;;;;;10277431;28;20207;-65
2022/06/30 23:29:55;;;;;;;5.35;2.22;;;;;;;;;;10279013;28;20144;-64
2022/06/30 23:34:53;;;;;;;4.00;2.35;;;;;;;;;;10278478;28;20505;-64
2022/06/30 23:39:53;;;;;;;7.93;2.33;;;;;;;;;;10276025;28;20049;-63
2022/06/30 23:44:51;;;;;;;3.92;2.10;;;;;;;;;;10276210;28;20522;-64
2022/06/30 23:49:50;;;;;;;5.28;2.35;;;;;;;;;;10278392;28;20095;-64
2022/06/30 23:54:48;;;;;;;8.23;4.45;;;;;;;;;;10275319;28;20076;-64
2022/06/30 23:59:48;;;;;;;18.00;6.80;;;;;;;;;;10279280;28;20064;-64
